createdAt,value
2017-10-30T00:01:14.565Z,4.70
2017-10-30T00:03:42.543Z,4.70
2017-10-30T00:06:14.545Z,4.70
2017-10-30T00:08:42.636Z,4.70
2017-10-30T00:11:10.588Z,4.70
2017-10-30T00:13:38.504Z,4.80
2017-10-30T00:16:06.468Z,4.90
2017-10-30T00:18:34.377Z,5.00
2017-10-30T00:21:02.326Z,5.20
2017-10-30T00:23:30.389Z,5.30
2017-10-30T00:25:58.334Z,5.40
2017-10-30T00:28:41.151Z,5.50
2017-10-30T00:31:09.094Z,5.50
2017-10-30T00:33:36.992Z,5.50
2017-10-30T00:36:04.944Z,5.60
2017-10-30T00:38:32.849Z,5.60
2017-10-30T00:41:00.791Z,5.60
2017-10-30T00:43:28.852Z,5.70
2017-10-30T00:45:56.794Z,5.60
2017-10-30T00:48:24.714Z,5.60
2017-10-30T00:50:52.671Z,5.70
2017-10-30T00:53:20.623Z,5.70
2017-10-30T00:55:48.567Z,5.70
2017-10-30T00:58:16.523Z,5.80
2017-10-30T01:00:44.456Z,5.80
2017-10-30T01:03:12.408Z,5.70
2017-10-30T01:05:40.311Z,5.60
2017-10-30T01:08:08.258Z,5.60
2017-10-30T01:10:36.164Z,5.60
2017-10-30T01:13:08.144Z,5.60
2017-10-30T01:15:36.034Z,5.50
2017-10-30T01:18:04.051Z,5.40
2017-10-30T01:20:31.974Z,5.30
2017-10-30T01:22:59.916Z,5.30
2017-10-30T01:25:27.814Z,5.20
2017-10-30T01:27:55.746Z,5.10
2017-10-30T01:30:23.651Z,5.00
2017-10-30T01:32:51.674Z,5.00
2017-10-30T01:35:19.574Z,5.00
2017-10-30T01:37:47.545Z,5.00
2017-10-30T01:40:15.450Z,5.00
2017-10-30T01:42:43.492Z,4.90
2017-10-30T01:45:11.408Z,4.80
2017-10-30T01:47:39.355Z,4.80
2017-10-30T01:50:07.271Z,4.80
2017-10-30T01:52:35.209Z,4.70
2017-10-30T01:55:03.170Z,4.70
2017-10-30T01:57:31.186Z,4.60
2017-10-30T01:59:59.150Z,4.50
2017-10-30T02:02:27.086Z,4.40
2017-10-30T02:04:55.032Z,4.40
2017-10-30T02:07:22.976Z,4.40
2017-10-30T02:09:50.879Z,4.50
2017-10-30T02:12:20.960Z,4.50
2017-10-30T02:14:48.905Z,4.50
2017-10-30T02:17:17.625Z,4.40
2017-10-30T02:19:45.595Z,4.40
2017-10-30T02:22:13.584Z,4.40
2017-10-30T02:24:41.540Z,4.40
2017-10-30T02:27:09.561Z,4.40
2017-10-30T02:29:37.494Z,4.30
2017-10-30T02:32:05.536Z,4.30
2017-10-30T02:34:33.496Z,4.30
2017-10-30T02:37:01.514Z,4.20
2017-10-30T02:39:29.487Z,4.20
2017-10-30T02:41:57.502Z,4.20
2017-10-30T02:44:25.474Z,4.10
2017-10-30T02:46:53.470Z,4.10
2017-10-30T02:49:21.419Z,4.00
2017-10-30T02:51:49.448Z,4.00
2017-10-30T02:54:17.423Z,4.00
2017-10-30T02:56:45.444Z,4.00
2017-10-30T02:59:13.404Z,3.90
2017-10-30T03:01:41.455Z,3.90
2017-10-30T03:04:10.175Z,3.90
2017-10-30T03:06:38.198Z,3.80
2017-10-30T03:09:06.118Z,3.80
2017-10-30T03:11:34.133Z,4.00
2017-10-30T03:14:02.092Z,4.00
2017-10-30T03:16:30.080Z,4.00
2017-10-30T03:18:58.066Z,4.00
2017-10-30T03:21:26.028Z,4.00
2017-10-30T03:23:54.047Z,4.00
2017-10-30T03:26:21.998Z,4.00
2017-10-30T03:28:49.996Z,4.00
2017-10-30T03:31:18.006Z,3.90
2017-10-30T03:33:46.156Z,3.90
2017-10-30T03:36:14.085Z,3.80
2017-10-30T03:38:42.087Z,3.80
2017-10-30T03:41:09.998Z,3.70
2017-10-30T03:43:38.761Z,3.70
2017-10-30T03:46:06.727Z,3.60
2017-10-30T03:48:34.725Z,3.60
2017-10-30T03:51:02.662Z,3.70
2017-10-30T03:53:30.617Z,3.60
2017-10-30T03:55:58.580Z,3.70
2017-10-30T03:58:26.560Z,3.70
2017-10-30T04:00:54.520Z,3.70
2017-10-30T04:03:29.724Z,3.70
2017-10-30T04:05:57.629Z,3.70
2017-10-30T04:08:25.594Z,3.80
2017-10-30T04:10:53.513Z,3.80
2017-10-30T04:13:21.455Z,3.70
2017-10-30T04:15:49.351Z,3.70
2017-10-30T04:18:17.300Z,3.80
2017-10-30T04:20:45.179Z,3.80
2017-10-30T04:23:13.114Z,3.80
2017-10-30T04:25:40.984Z,3.70
2017-10-30T04:28:08.920Z,3.70
2017-10-30T04:30:37.587Z,3.70
2017-10-30T04:33:05.692Z,3.70
2017-10-30T04:35:33.586Z,3.70
2017-10-30T04:38:01.518Z,3.70
2017-10-30T04:40:30.154Z,3.80
2017-10-30T04:42:58.100Z,3.80
2017-10-30T04:45:25.982Z,3.70
2017-10-30T04:47:53.924Z,3.70
2017-10-30T04:50:21.798Z,3.70
2017-10-30T04:52:49.728Z,3.70
2017-10-30T04:55:17.615Z,3.60
2017-10-30T04:57:45.539Z,3.60
2017-10-30T05:00:13.419Z,3.60
2017-10-30T05:02:49.905Z,3.70
2017-10-30T05:05:17.782Z,3.80
2017-10-30T05:07:45.678Z,4.00
2017-10-30T05:10:13.611Z,4.00
2017-10-30T05:12:41.495Z,4.10
2017-10-30T05:15:09.432Z,4.20
2017-10-30T05:17:37.325Z,4.30
2017-10-30T05:20:05.264Z,4.40
2017-10-30T05:22:33.146Z,4.50
2017-10-30T05:25:01.075Z,4.50
2017-10-30T05:27:29.035Z,4.50
2017-10-30T05:29:56.962Z,4.40
2017-10-30T05:32:25.847Z,4.40
2017-10-30T05:34:53.778Z,4.40
2017-10-30T05:37:21.683Z,4.40
2017-10-30T05:39:49.617Z,4.30
2017-10-30T05:42:17.495Z,4.20
2017-10-30T05:44:45.422Z,4.10
2017-10-30T05:47:13.321Z,4.10
2017-10-30T05:49:41.259Z,4.10
2017-10-30T05:52:09.143Z,4.10
2017-10-30T05:54:37.087Z,4.10
2017-10-30T05:57:05.003Z,4.20
2017-10-30T05:59:32.882Z,4.20
2017-10-30T06:02:00.807Z,4.20
2017-10-30T06:04:28.704Z,4.30
2017-10-30T06:07:00.321Z,4.30
2017-10-30T06:09:28.287Z,4.40
2017-10-30T06:11:58.169Z,4.40
2017-10-30T06:14:26.098Z,4.50
2017-10-30T06:16:54.027Z,4.50
2017-10-30T06:19:23.327Z,4.60
2017-10-30T06:21:55.318Z,4.60
2017-10-30T06:24:28.932Z,4.60
2017-10-30T06:26:59.198Z,4.60
2017-10-30T06:29:28.233Z,4.60
2017-10-30T06:31:56.276Z,4.60
2017-10-30T06:34:24.160Z,4.70
2017-10-30T06:36:52.094Z,4.70
2017-10-30T06:39:19.972Z,4.80
2017-10-30T06:41:47.906Z,4.80
2017-10-30T06:44:15.799Z,4.90
2017-10-30T06:46:43.759Z,4.90
2017-10-30T06:49:11.652Z,4.90
2017-10-30T06:51:39.607Z,4.90
2017-10-30T06:54:07.659Z,4.90
2017-10-30T06:56:35.592Z,4.90
2017-10-30T06:59:04.266Z,4.80
2017-10-30T07:01:32.192Z,4.80
2017-10-30T07:04:00.073Z,4.80
2017-10-30T07:06:28.021Z,4.80
2017-10-30T07:08:55.900Z,4.80
2017-10-30T07:11:23.818Z,4.80
2017-10-30T07:13:52.579Z,5.00
2017-10-30T07:16:20.671Z,5.00
2017-10-30T07:18:48.641Z,5.10
2017-10-30T07:21:16.582Z,5.40
2017-10-30T07:23:44.543Z,5.50
2017-10-30T07:26:12.474Z,5.60
2017-10-30T07:28:41.215Z,5.60
2017-10-30T07:31:09.105Z,5.70
2017-10-30T07:33:37.038Z,5.80
2017-10-30T07:36:04.943Z,5.80
2017-10-30T07:38:32.873Z,5.80
2017-10-30T07:41:00.754Z,6.00
2017-10-30T07:43:28.710Z,6.10
2017-10-30T07:45:56.669Z,6.30
2017-10-30T07:48:26.273Z,6.40
2017-10-30T07:50:56.923Z,6.40
2017-10-30T07:53:25.243Z,6.50
2017-10-30T07:55:53.201Z,6.40
2017-10-30T07:58:21.333Z,6.40
2017-10-30T08:00:49.277Z,6.40
2017-10-30T08:03:18.066Z,6.60
2017-10-30T08:05:46.042Z,6.60
2017-10-30T08:08:14.080Z,6.80
2017-10-30T08:10:41.999Z,6.70
2017-10-30T08:13:11.261Z,6.70
2017-10-30T08:15:39.201Z,6.80
2017-10-30T08:18:07.190Z,6.90
2017-10-30T08:20:35.162Z,7.00
2017-10-30T08:23:03.183Z,7.00
2017-10-30T08:25:31.154Z,7.10
2017-10-30T08:27:59.197Z,7.20
2017-10-30T08:30:27.134Z,7.30
2017-10-30T08:32:55.141Z,7.40
2017-10-30T08:35:23.912Z,7.60
2017-10-30T08:37:51.842Z,7.60
2017-10-30T08:40:19.854Z,7.70
2017-10-30T08:42:51.166Z,7.60
2017-10-30T08:45:19.162Z,7.60
2017-10-30T08:47:47.097Z,7.60
2017-10-30T08:50:15.121Z,7.70
2017-10-30T08:52:43.850Z,8.00
2017-10-30T08:55:11.894Z,8.00
2017-10-30T08:57:39.842Z,8.40
2017-10-30T09:00:07.849Z,8.40
2017-10-30T09:02:35.815Z,8.50
2017-10-30T09:05:03.821Z,8.40
2017-10-30T09:07:31.782Z,8.40
2017-10-30T09:09:59.798Z,8.60
2017-10-30T09:12:33.759Z,8.90
2017-10-30T09:15:01.764Z,9.10
2017-10-30T09:17:29.758Z,9.40
2017-10-30T09:19:57.759Z,9.50
2017-10-30T09:22:25.713Z,9.50
2017-10-30T09:24:54.502Z,10.00
2017-10-30T09:27:22.474Z,10.00
2017-10-30T09:29:50.497Z,10.20
2017-10-30T09:32:18.476Z,10.20
2017-10-30T09:34:46.414Z,10.30
2017-10-30T09:37:14.431Z,10.60
2017-10-30T09:39:42.482Z,10.60
2017-10-30T09:42:12.719Z,10.60
2017-10-30T09:44:40.990Z,10.70
2017-10-30T09:47:08.977Z,11.10
2017-10-30T09:49:37.674Z,10.90
2017-10-30T09:52:06.479Z,11.10
2017-10-30T09:54:34.422Z,11.10
2017-10-30T09:57:02.970Z,10.40
2017-10-30T09:59:31.052Z,10.50
2017-10-30T10:02:00.287Z,10.40
2017-10-30T10:04:28.241Z,10.30
2017-10-30T10:06:56.253Z,10.30
2017-10-30T10:09:24.240Z,10.60
2017-10-30T10:11:52.812Z,10.80
2017-10-30T10:14:20.782Z,10.80
2017-10-30T10:16:49.574Z,11.20
2017-10-30T10:19:17.541Z,11.20
2017-10-30T10:21:46.297Z,11.20
2017-10-30T10:24:15.013Z,11.20
2017-10-30T10:26:43.020Z,11.20
2017-10-30T10:29:10.992Z,11.70
2017-10-30T10:31:39.008Z,12.00
2017-10-30T10:34:07.267Z,12.00
2017-10-30T10:36:35.223Z,12.50
2017-10-30T10:39:03.240Z,13.00
2017-10-30T10:41:31.177Z,13.90
2017-10-30T10:43:59.174Z,14.30
2017-10-30T10:46:27.108Z,15.10
2017-10-30T10:48:57.090Z,14.60
2017-10-30T10:51:25.058Z,14.60
2017-10-30T10:53:53.003Z,14.40
2017-10-30T10:56:20.929Z,14.10
2017-10-30T10:58:48.968Z,14.10
2017-10-30T11:01:17.117Z,14.50
2017-10-30T11:03:45.117Z,13.60
2017-10-30T11:06:12.997Z,13.30
2017-10-30T11:08:40.959Z,13.00
2017-10-30T11:11:08.898Z,12.40
2017-10-30T11:13:36.846Z,12.20
2017-10-30T11:16:04.759Z,12.40
2017-10-30T11:18:32.786Z,13.70
2017-10-30T11:21:00.750Z,14.10
2017-10-30T11:23:30.948Z,15.70
2017-10-30T11:26:00.180Z,16.20
2017-10-30T11:28:28.138Z,16.20
2017-10-30T11:30:56.037Z,15.70
2017-10-30T11:33:37.833Z,15.50
2017-10-30T11:36:05.753Z,15.50
2017-10-30T11:38:33.726Z,14.30
2017-10-30T11:41:01.646Z,13.80
2017-10-30T11:43:29.689Z,13.50
2017-10-30T11:45:57.592Z,12.70
2017-10-30T11:48:25.498Z,12.40
2017-10-30T11:50:53.432Z,12.70
2017-10-30T11:53:27.770Z,13.00
2017-10-30T11:55:57.678Z,13.20
2017-10-30T11:58:25.653Z,12.60
2017-10-30T12:00:53.592Z,12.30
2017-10-30T12:03:24.911Z,11.90
2017-10-30T12:05:52.875Z,11.40
2017-10-30T12:08:20.780Z,11.30
2017-10-30T12:10:48.737Z,11.20
2017-10-30T12:13:16.623Z,11.10
2017-10-30T12:15:44.576Z,10.80
2017-10-30T12:18:12.476Z,10.60
2017-10-30T12:20:40.474Z,10.50
2017-10-30T12:23:08.359Z,10.40
2017-10-30T12:25:36.285Z,10.30
2017-10-30T12:28:04.203Z,10.20
2017-10-30T12:30:32.132Z,10.10
2017-10-30T12:33:00.841Z,10.00
2017-10-30T12:35:28.784Z,10.10
2017-10-30T12:37:56.652Z,10.10
2017-10-30T12:40:24.573Z,10.20
2017-10-30T12:42:52.455Z,10.10
2017-10-30T12:45:20.406Z,10.30
2017-10-30T12:47:48.292Z,10.30
2017-10-30T12:50:16.241Z,10.40
2017-10-30T12:52:44.128Z,10.40
2017-10-30T12:55:12.072Z,10.40
2017-10-30T12:57:40.019Z,10.40
2017-10-30T13:00:08.033Z,10.30
2017-10-30T13:02:35.975Z,10.30
2017-10-30T13:05:03.974Z,10.20
2017-10-30T13:07:31.968Z,10.10
2017-10-30T13:10:00.666Z,10.20
2017-10-30T13:12:28.651Z,10.20
2017-10-30T13:14:56.621Z,10.40
2017-10-30T13:17:24.553Z,10.40
2017-10-30T13:19:52.530Z,10.60
2017-10-30T13:22:20.502Z,10.70
2017-10-30T13:24:48.471Z,10.90
2017-10-30T13:27:16.341Z,10.90
2017-10-30T13:29:44.300Z,11.00
2017-10-30T13:32:13.058Z,11.20
2017-10-30T13:34:40.980Z,11.20
2017-10-30T13:37:08.873Z,11.50
2017-10-30T13:39:36.811Z,11.70
2017-10-30T13:42:04.721Z,11.60
2017-10-30T13:44:32.665Z,11.60
2017-10-30T13:47:00.557Z,11.60
2017-10-30T13:49:28.514Z,11.60
2017-10-30T13:51:56.384Z,11.40
2017-10-30T13:54:24.327Z,11.40
2017-10-30T13:56:52.207Z,11.30
2017-10-30T13:59:20.141Z,11.20
2017-10-30T14:01:48.033Z,11.00
2017-10-30T14:04:15.962Z,10.90
2017-10-30T14:06:43.869Z,10.60
2017-10-30T15:02:51.433Z,8.70
2017-10-30T15:05:19.448Z,8.60
2017-10-30T15:07:47.402Z,8.60
2017-10-30T15:10:20.760Z,8.40
2017-10-30T15:12:51.168Z,8.30
2017-10-30T15:15:24.281Z,8.10
2017-10-30T15:17:52.963Z,8.10
2017-10-30T15:20:21.210Z,8.00
2017-10-30T15:22:49.177Z,8.00
2017-10-30T15:25:17.173Z,7.90
2017-10-30T15:27:45.150Z,7.80
2017-10-30T15:30:13.178Z,7.70
2017-10-30T15:32:45.869Z,7.60
2017-10-30T15:35:20.319Z,7.50
2017-10-30T15:37:56.216Z,7.40
2017-10-30T15:40:24.361Z,7.40
2017-10-30T15:42:53.067Z,7.30
2017-10-30T15:45:21.025Z,7.20
2017-10-30T15:47:48.960Z,7.20
2017-10-30T15:50:16.921Z,7.10
2017-10-30T15:52:44.829Z,7.00
2017-10-30T15:55:13.577Z,6.80
2017-10-30T15:57:41.475Z,6.80
2017-10-30T16:00:09.421Z,6.70
2017-10-30T16:02:41.005Z,6.60
2017-10-30T16:05:09.714Z,6.30
2017-10-30T16:07:38.388Z,6.30
2017-10-30T16:10:06.336Z,6.20
2017-10-30T16:12:34.241Z,6.20
2017-10-30T16:15:02.189Z,6.20
2017-10-30T16:17:30.080Z,6.20
2017-10-30T16:19:58.049Z,6.20
2017-10-30T16:22:25.944Z,6.30
2017-10-30T16:24:53.882Z,6.40
2017-10-30T16:27:21.798Z,6.50
2017-10-30T16:29:49.733Z,6.60
2017-10-30T16:32:25.186Z,6.60
2017-10-30T16:34:53.172Z,6.60
2017-10-30T16:37:21.081Z,6.70
2017-10-30T16:39:49.015Z,6.70
2017-10-30T16:42:16.946Z,6.80
2017-10-30T16:44:44.860Z,6.80
2017-10-30T16:47:12.824Z,6.80
2017-10-30T16:49:40.804Z,6.70
2017-10-30T16:52:08.805Z,6.60
2017-10-30T16:54:36.745Z,6.50
2017-10-30T16:57:04.717Z,6.40
2017-10-30T16:59:32.625Z,6.20
2017-10-30T17:02:00.592Z,6.10
2017-10-30T17:04:28.498Z,5.90
2017-10-30T17:06:56.431Z,5.70
2017-10-30T17:09:25.087Z,5.50
2017-10-30T17:11:53.830Z,5.40
2017-10-30T17:14:21.724Z,5.40
2017-10-30T17:16:49.674Z,5.30
2017-10-30T17:19:17.578Z,5.20
2017-10-30T17:21:46.378Z,5.10
2017-10-30T17:24:16.297Z,5.00
2017-10-30T17:26:44.269Z,5.00
2017-10-30T17:29:12.168Z,4.90
2017-10-30T17:31:40.121Z,4.80
2017-10-30T17:34:08.008Z,4.70
2017-10-30T17:36:35.975Z,4.60
2017-10-30T17:39:03.977Z,4.60
2017-10-30T17:41:31.921Z,4.50
2017-10-30T17:43:59.820Z,4.50
2017-10-30T17:46:27.846Z,4.50
2017-10-30T17:48:56.008Z,4.40
2017-10-30T17:51:24.159Z,4.30
2017-10-30T17:53:55.934Z,4.20
2017-10-30T17:56:24.215Z,4.20
2017-10-30T17:58:52.098Z,4.20
2017-10-30T18:01:20.819Z,4.20
2017-10-30T18:03:48.731Z,4.20
2017-10-30T18:06:16.668Z,4.20
2017-10-30T18:08:44.565Z,4.10
2017-10-30T18:11:12.629Z,4.10
2017-10-30T18:13:40.499Z,4.10
2017-10-30T18:16:08.450Z,4.00
2017-10-30T18:18:36.358Z,4.00
2017-10-30T18:21:04.948Z,4.00
2017-10-30T18:23:33.012Z,4.00
2017-10-30T18:26:01.086Z,4.00
2017-10-30T18:28:28.980Z,3.90
2017-10-30T18:30:56.944Z,3.90
2017-10-30T18:33:25.585Z,3.70
2017-10-30T18:35:54.837Z,3.70
2017-10-30T18:38:23.587Z,3.60
2017-10-30T18:40:51.535Z,3.50
2017-10-30T18:43:20.899Z,3.50
2017-10-30T18:45:48.910Z,3.40
2017-10-30T18:48:16.835Z,3.50
2017-10-30T18:50:45.518Z,3.40
2017-10-30T18:53:16.342Z,3.30
2017-10-30T18:55:44.292Z,3.30
2017-10-30T18:58:12.179Z,3.30
2017-10-30T19:00:40.993Z,3.20
2017-10-30T19:03:08.890Z,3.20
2017-10-30T19:05:36.825Z,3.10
2017-10-30T19:08:04.712Z,3.00
2017-10-30T19:10:32.693Z,2.90
2017-10-30T19:13:00.580Z,3.10
2017-10-30T19:15:28.519Z,3.10
2017-10-30T19:17:56.419Z,3.10
2017-10-30T19:20:24.338Z,3.10
2017-10-30T19:22:52.358Z,3.10
2017-10-30T19:25:20.260Z,2.90
2017-10-30T19:27:48.210Z,3.00
2017-10-30T19:30:16.094Z,3.00
2017-10-30T19:32:44.057Z,3.00
2017-10-30T19:35:11.949Z,2.90
2017-10-30T19:37:39.962Z,2.90
2017-10-30T19:40:07.848Z,2.90
2017-10-30T19:42:39.690Z,2.80
2017-10-30T19:45:10.158Z,2.70
2017-10-30T19:47:38.143Z,2.70
2017-10-30T19:50:06.055Z,2.70
2017-10-30T19:52:34.009Z,2.70
2017-10-30T19:55:01.918Z,2.60
2017-10-30T19:57:29.906Z,2.60
2017-10-30T19:59:58.283Z,2.60
2017-10-30T20:02:26.257Z,2.60
2017-10-30T20:04:54.200Z,2.70
2017-10-30T20:07:30.741Z,2.70
2017-10-30T20:10:04.241Z,2.60
2017-10-30T20:12:32.202Z,2.40
2017-10-30T20:15:00.092Z,2.30
2017-10-30T20:17:28.072Z,2.40
2017-10-30T20:19:55.961Z,2.50
2017-10-30T20:22:25.126Z,2.50
2017-10-30T20:24:53.014Z,2.50
2017-10-30T20:27:20.961Z,2.50
2017-10-30T20:29:48.910Z,2.50
2017-10-30T20:32:16.922Z,2.40
2017-10-30T20:34:44.823Z,2.30
2017-10-30T20:37:13.032Z,2.40
2017-10-30T20:39:42.612Z,2.30
2017-10-30T20:42:11.864Z,2.10
2017-10-30T20:44:39.740Z,2.10
2017-10-30T20:47:07.702Z,2.20
2017-10-30T20:49:37.163Z,2.20
2017-10-30T20:52:10.931Z,2.30
2017-10-30T20:54:38.835Z,2.20
2017-10-30T20:57:06.802Z,2.20
2017-10-30T20:59:34.692Z,2.30
2017-10-30T21:02:02.654Z,2.20
2017-10-30T21:04:30.581Z,2.10
2017-10-30T21:06:58.493Z,2.00
2017-10-30T21:09:26.409Z,2.00
2017-10-30T21:11:54.361Z,2.00
2017-10-30T21:14:22.246Z,2.00
2017-10-30T21:16:50.186Z,2.00
2017-10-30T21:19:18.508Z,2.00
2017-10-30T21:21:46.724Z,1.90
2017-10-30T21:24:17.951Z,2.00
2017-10-30T21:26:45.897Z,2.10
2017-10-30T21:29:13.778Z,2.00
2017-10-30T21:31:41.720Z,2.00
2017-10-30T21:34:09.623Z,1.90
2017-10-30T21:36:37.543Z,1.90
2017-10-30T21:39:05.409Z,1.80
2017-10-30T21:41:34.083Z,1.80
2017-10-30T21:44:02.842Z,1.60
2017-10-30T21:46:30.777Z,1.60
2017-10-30T21:48:58.674Z,1.60
2017-10-30T21:51:30.032Z,1.60
2017-10-30T21:53:58.732Z,1.50
2017-10-30T21:56:26.675Z,1.50
2017-10-30T21:58:54.571Z,1.50
2017-10-30T22:01:22.519Z,1.60
2017-10-30T22:03:50.420Z,1.50
2017-10-30T22:06:18.389Z,1.50
2017-10-30T22:08:46.275Z,1.50
2017-10-30T22:11:14.215Z,1.50
2017-10-30T22:13:42.233Z,1.40
2017-10-30T22:16:10.131Z,1.50
2017-10-30T22:18:38.113Z,1.40
2017-10-30T22:21:06.012Z,1.30
2017-10-30T22:23:33.982Z,1.40
2017-10-30T22:26:01.873Z,1.50
2017-10-30T22:28:29.846Z,1.50
2017-10-30T22:30:58.176Z,1.60
2017-10-30T22:33:26.124Z,1.40
2017-10-30T22:35:54.035Z,1.30
2017-10-30T22:38:22.002Z,1.20
2017-10-30T22:40:50.671Z,1.30
2017-10-30T22:43:19.417Z,1.40
2017-10-30T22:45:47.377Z,1.40
2017-10-30T22:48:15.322Z,1.40
2017-10-30T22:50:43.263Z,1.30
2017-10-30T22:53:11.211Z,1.20
2017-10-30T22:55:39.126Z,1.20
2017-10-30T22:58:07.067Z,1.20
2017-10-30T23:00:34.950Z,1.20
2017-10-30T23:03:03.789Z,1.50
2017-10-30T23:05:31.747Z,1.50
2017-10-30T23:07:59.688Z,1.70
2017-10-30T23:10:27.634Z,1.80
2017-10-30T23:12:55.676Z,1.90
2017-10-30T23:15:23.797Z,2.00
2017-10-30T23:17:51.738Z,2.10
2017-10-30T23:20:19.635Z,2.20
2017-10-30T23:22:47.583Z,2.30
2017-10-30T23:25:15.485Z,2.40
2017-10-30T23:27:43.429Z,2.60
2017-10-30T23:30:11.385Z,2.70
2017-10-30T23:32:39.349Z,2.80
2017-10-30T23:35:07.294Z,2.80
2017-10-30T23:37:35.212Z,2.70
2017-10-30T23:40:03.125Z,2.50
2017-10-30T23:42:31.307Z,2.60
2017-10-30T23:44:59.212Z,2.60
2017-10-30T23:47:27.166Z,2.80
2017-10-30T23:49:55.052Z,2.90
2017-10-30T23:52:23.002Z,2.90
2017-10-30T23:54:50.929Z,2.90
2017-10-30T23:57:18.882Z,2.80
2017-10-30T23:59:46.773Z,2.80
